Time;durP1;ratioP1;P1;durP2;ratioP2;P2;SDS_P1;SDS_P2;PMS_P1;PMS_P2;Temp;Humidity;BMP_temperature;BMP_pressure;BME280_temperature;BME280_humidity;BME280_pressure;Samples;Min_cycle;Max_cycle;Signal;HPM_P1;HPM_P2
2024/01/31 04:57:05;;;;;;;1999.90;867.45;;;;;;;-2.90;100.00;68169.50;6066949;27;20137;-84
2024/01/31 05:00:15;;;;;;;1999.90;621.75;;;;;;;-3.01;100.00;68165.88;5348375;33;34653;-85
2024/01/31 05:03:18;;;;;;;1999.90;612.15;;;;;;;-3.00;100.00;68163.81;5361188;33;33770;-85
2024/01/31 05:06:21;;;;;;;1999.90;516.65;;;;;;;-3.09;100.00;68151.44;5336185;33;34516;-86
2024/01/31 05:09:24;;;;;;;1999.90;533.58;;;;;;;-3.17;100.00;68139.09;5347577;33;34114;-89
2024/01/31 05:12:27;;;;;;;1999.90;559.92;;;;;;;-3.28;100.00;68130.22;5361305;33;33719;-89
2024/01/31 05:15:31;;;;;;;1999.90;567.22;;;;;;;-3.38;100.00;68121.34;5361214;33;34032;-89
2024/01/31 05:18:35;;;;;;;1999.90;688.70;;;;;;;-3.48;100.00;68105.22;5359840;33;33845;-85
2024/01/31 05:21:48;;;;;;;1999.90;539.53;;;;;;;-3.67;100.00;68084.00;5359763;33;34137;-84
2024/01/31 05:24:51;;;;;;;1999.90;565.70;;;;;;;-3.80;100.00;68071.13;5361021;33;33615;-84
2024/01/31 05:27:54;;;;;;;1999.90;604.62;;;;;;;-3.81;100.00;68067.38;5349212;33;33939;-85
2024/01/31 05:30:59;;;;;;;1999.90;603.17;;;;;;;-3.87;100.00;68061.06;5365077;33;33544;-85
2024/01/31 05:34:02;;;;;;;1999.90;577.90;;;;;;;-3.88;100.00;68060.50;5360628;33;34558;-85
2024/01/31 05:37:06;;;;;;;1999.90;569.15;;;;;;;-3.90;100.00;68060.78;5360688;33;34802;-86
2024/01/31 05:40:11;;;;;;;1999.90;527.37;;;;;;;-3.79;100.00;68077.50;5347815;33;34206;-85
2024/01/31 05:43:14;;;;;;;1999.90;561.90;;;;;;;-3.69;100.00;68088.97;5360170;33;34291;-85
2024/01/31 05:46:17;;;;;;;1999.90;616.60;;;;;;;-3.68;100.00;68084.91;5360842;33;34827;-86
2024/01/31 05:49:24;;;;;;;1999.90;804.45;;;;;;;-3.72;100.00;68135.09;5359418;33;35033;-86
2024/01/31 05:52:27;;;;;;;1999.90;577.75;;;;;;;-3.63;100.00;68090.06;5377689;33;33906;-86
2024/01/31 05:55:30;;;;;;;1999.90;595.55;;;;;;;-3.63;100.00;68087.44;5354187;33;34271;-86
2024/01/31 05:58:33;;;;;;;1999.90;608.10;;;;;;;-3.56;100.00;68095.47;5354017;33;34221;-85
2024/01/31 06:01:36;;;;;;;1999.90;559.50;;;;;;;-3.41;100.00;68112.69;5354034;33;34981;-86
2024/01/31 06:04:40;;;;;;;1999.90;572.80;;;;;;;-3.31;100.00;68181.03;5379143;33;34246;-85
2024/01/31 06:07:43;;;;;;;1999.90;783.58;;;;;;;-3.22;100.00;68136.53;5366221;33;34663;-85
2024/01/31 06:10:49;;;;;;;1999.90;999.90;;;;;;;-3.36;100.00;68118.44;5366008;33;34130;-85
2024/01/31 06:13:53;;;;;;;1999.90;563.95;;;;;;;-3.39;100.00;68119.63;5379217;33;34049;-85
2024/01/31 06:16:56;;;;;;;1999.90;618.00;;;;;;;-3.42;100.00;68114.72;5366233;33;33815;-85
2024/01/31 06:19:59;;;;;;;1999.90;616.60;;;;;;;-3.33;100.00;68121.88;5365954;33;33861;-85
2024/01/31 06:23:04;;;;;;;1999.90;575.22;;;;;;;-3.46;100.00;68107.50;5365995;33;33662;-84
2024/01/31 06:26:07;;;;;;;1999.90;626.17;;;;;;;-3.50;100.00;68159.78;5366028;33;34391;-85
2024/01/31 06:29:17;;;;;;;1999.90;658.10;;;;;;;-3.44;100.00;68114.47;5358924;33;34656;-85
2024/01/31 06:32:30;;;;;;;1999.90;795.85;;;;;;;-3.42;100.00;68116.78;5334490;33;33701;-85
2024/01/31 06:35:35;;;;;;;1999.90;626.65;;;;;;;-3.46;100.00;68110.13;5333069;33;33701;-85
2024/01/31 06:38:38;;;;;;;1999.90;768.72;;;;;;;-3.52;100.00;68100.06;5354645;33;34172;-85
2024/01/31 06:41:41;;;;;;;1999.90;640.47;;;;;;;-3.38;100.00;68121.34;5354605;33;34308;-85
2024/01/31 06:44:44;;;;;;;1999.90;600.90;;;;;;;-3.50;100.00;68108.16;5356251;33;34133;-84
2024/01/31 06:47:47;;;;;;;1999.90;598.70;;;;;;;-3.45;100.00;68165.53;5341901;33;34098;-84
2024/01/31 06:50:50;;;;;;;1999.90;673.67;;;;;;;-3.32;100.00;68127.66;5334061;33;34016;-85
2024/01/31 06:53:58;;;;;;;1999.90;770.15;;;;;;;-3.42;100.00;68111.53;5329354;33;34179;-85
2024/01/31 06:57:01;;;;;;;1999.90;637.47;;;;;;;-3.38;100.00;68118.75;5345638;33;34873;-89
2024/01/31 07:00:06;;;;;;;1999.90;787.83;;;;;;;-3.29;100.00;68128.50;5350902;33;34320;-89
2024/01/31 07:03:11;;;;;;;1999.90;662.92;;;;;;;-3.32;100.00;68125.63;5353653;33;34898;-89
2024/01/31 07:06:16;;;;;;;1999.90;572.22;;;;;;;-3.29;100.00;68131.69;5351440;33;33688;-85
2024/01/31 07:09:18;;;;;;;1999.90;901.78;;;;;;;-3.32;100.00;68123.00;5354037;33;33852;-85
2024/01/31 07:12:22;;;;;;;1999.90;735.33;;;;;;;-3.20;100.00;68138.81;5360347;33;33625;-85
2024/01/31 07:15:24;;;;;;;1999.90;649.03;;;;;;;-3.09;100.00;68150.88;5346891;33;33732;-85
2024/01/31 07:18:27;;;;;;;1999.90;608.08;;;;;;;-2.98;100.00;68164.09;5361234;33;34667;-85
2024/01/31 07:21:30;;;;;;;1999.90;679.75;;;;;;;-2.79;100.00;68185.31;5351204;33;34966;-85
2024/01/31 07:24:34;;;;;;;1999.90;667.00;;;;;;;-2.59;100.00;68212.38;5377297;33;34373;-85
2024/01/31 07:27:40;;;;;;;1999.90;691.38;;;;;;;-2.04;100.00;68269.16;5352960;33;35674;-84
2024/01/31 07:30:43;;;;;;;1999.90;664.60;;;;;;;-1.44;100.00;68334.34;5374099;33;34437;-85
2024/01/31 07:33:47;;;;;;;1999.90;796.33;;;;;;;-1.00;100.00;68385.84;5360996;33;34714;-85
2024/01/31 07:36:52;;;;;;;1999.90;861.75;;;;;;;-0.70;100.00;68425.03;5359921;33;34677;-84
2024/01/31 07:39:57;;;;;;;1999.90;920.58;;;;;;;-0.31;100.00;68463.53;5333379;33;33850;-85
2024/01/31 07:43:00;;;;;;;1999.90;959.47;;;;;;;-0.10;100.00;68487.13;5328483;33;33933;-85
2024/01/31 07:46:04;;;;;;;1999.90;945.17;;;;;;;0.01;100.00;68499.78;5342480;33;34025;-85
2024/01/31 07:49:08;;;;;;;1999.90;990.85;;;;;;;0.09;100.00;68509.00;5360445;33;34009;-85
2024/01/31 07:52:11;;;;;;;1999.90;999.90;;;;;;;0.21;100.00;68522.25;5347075;33;34974;-85
2024/01/31 07:55:15;;;;;;;1999.90;999.90;;;;;;;0.07;100.00;68564.47;5357986;33;34761;-84
2024/01/31 07:58:18;;;;;;;1999.90;947.85;;;;;;;0.11;100.00;68511.28;5342077;33;34985;-85
2024/01/31 08:01:21;;;;;;;1999.90;999.90;;;;;;;0.09;100.00;68508.41;5360400;33;34026;-85
2024/01/31 08:04:24;;;;;;;1999.90;999.90;;;;;;;0.35;100.00;68538.38;5344196;33;34313;-85
2024/01/31 08:07:27;;;;;;;1999.90;999.90;;;;;;;0.66;100.00;68630.75;5348262;33;34055;-85
2024/01/31 08:10:31;;;;;;;1999.90;999.90;;;;;;;0.80;100.00;68646.31;5336940;33;33635;-85
2024/01/31 08:13:34;;;;;;;1999.90;999.90;;;;;;;0.99;100.00;68609.78;5348682;33;33970;-85
2024/01/31 08:16:38;;;;;;;1999.90;999.90;;;;;;;0.99;100.00;68612.41;5349062;33;34193;-84
2024/01/31 08:19:41;;;;;;;1999.90;999.90;;;;;;;0.87;100.00;68601.78;5361714;33;34722;-85
2024/01/31 08:22:44;;;;;;;1999.90;999.90;;;;;;;0.90;100.00;68597.94;5336571;33;34302;-85
2024/01/31 08:25:47;;;;;;;1999.90;999.90;;;;;;;1.07;100.00;68619.00;5349636;33;34098;-85
2024/01/31 08:28:50;;;;;;;1999.90;999.90;;;;;;;1.45;100.00;68659.03;5362525;33;34154;-85
2024/01/31 08:32:08;;;;;;;1999.90;999.90;;;;;;;1.62;100.00;68681.25;5362233;33;34164;-86
2024/01/31 08:35:12;;;;;;;1999.90;999.90;;;;;;;1.48;100.00;68668.31;5362940;33;34521;-85
2024/01/31 08:38:15;;;;;;;1999.90;999.90;;;;;;;1.45;100.00;68664.84;5349574;33;33922;-86
2024/01/31 08:41:19;;;;;;;1999.90;999.90;;;;;;;1.72;100.00;68695.41;5354118;33;34948;-86
2024/01/31 08:44:22;;;;;;;1999.90;999.90;;;;;;;1.92;100.00;68714.69;5378053;33;34443;-86
2024/01/31 08:47:25;;;;;;;1999.90;999.90;;;;;;;2.04;100.00;68731.75;5348036;33;32676;-86
2024/01/31 08:50:28;;;;;;;1999.90;999.90;;;;;;;1.97;100.00;68720.47;5335167;33;34281;-85
2024/01/31 08:53:32;;;;;;;1999.90;999.90;;;;;;;2.21;100.00;68806.13;5350128;33;34719;-85
2024/01/31 08:56:34;;;;;;;1999.90;999.90;;;;;;;2.01;100.00;68727.69;5353649;33;35336;-88
2024/01/31 08:59:38;;;;;;;1999.90;999.90;;;;;;;2.16;100.00;68744.44;5363173;33;35539;-89
2024/01/31 09:02:40;;;;;;;1999.90;999.90;;;;;;;2.43;100.00;68775.03;5354485;33;34195;-90
2024/01/31 09:05:43;;;;;;;1999.90;999.90;;;;;;;2.35;100.00;68821.72;5338576;33;33895;-87
2024/01/31 09:08:47;;;;;;;1999.90;999.90;;;;;;;2.57;100.00;68788.53;5366493;33;34810;-86
2024/01/31 09:11:50;;;;;;;1999.90;999.90;;;;;;;2.56;100.00;68790.00;5348817;33;35113;-85
2024/01/31 09:14:53;;;;;;;1999.90;999.90;;;;;;;2.86;100.00;68824.06;5358806;33;33742;-84
2024/01/31 09:17:56;;;;;;;1999.90;999.90;;;;;;;2.93;100.00;68832.16;5361234;33;33684;-85
2024/01/31 09:21:00;;;;;;;1999.90;999.90;;;;;;;3.03;100.00;68842.53;5336116;33;34242;-87
2024/01/31 09:24:03;;;;;;;1999.90;999.90;;;;;;;2.88;100.00;68826.38;5355696;33;34411;-85
2024/01/31 09:27:09;;;;;;;1999.90;998.95;;;;;;;2.94;100.00;68832.72;5345756;33;34147;-86
2024/01/31 09:30:12;;;;;;;1999.90;999.90;;;;;;;2.91;100.00;68832.47;5335331;33;34098;-85
2024/01/31 09:33:15;;;;;;;1999.90;999.90;;;;;;;2.97;100.00;68835.63;5343075;33;33976;-85
2024/01/31 09:36:21;;;;;;;1999.90;999.90;;;;;;;2.92;100.00;68886.38;5348720;33;33977;-85
2024/01/31 09:39:25;;;;;;;1999.90;999.90;;;;;;;3.20;100.00;68862.16;5361880;33;34333;-85
2024/01/31 09:42:28;;;;;;;1999.90;999.90;;;;;;;3.45;100.00;68889.88;5348577;33;34261;-85
2024/01/31 09:45:33;;;;;;;1999.90;999.90;;;;;;;3.25;100.00;68864.72;5337733;33;33929;-85
2024/01/31 09:48:39;;;;;;;1999.90;999.90;;;;;;;3.40;100.00;68884.69;5361614;33;33530;-86
2024/01/31 09:51:42;;;;;;;1999.90;999.90;;;;;;;3.50;100.00;68898.31;5366054;33;34131;-85
2024/01/31 09:54:49;;;;;;;1999.90;999.90;;;;;;;3.56;100.00;68902.59;5358892;33;34060;-86
2024/01/31 09:57:52;;;;;;;1999.90;993.67;;;;;;;3.66;100.00;68910.91;5344418;33;34047;-85
2024/01/31 10:01:00;;;;;;;1999.90;976.17;;;;;;;3.72;100.00;68920.50;5349903;33;34203;-86
2024/01/31 10:04:14;;;;;;;1999.90;999.90;;;;;;;3.86;100.00;68992.75;5365897;33;34632;-84
2024/01/31 10:07:32;;;;;;;1999.90;999.90;;;;;;;4.02;100.00;69010.66;5378600;33;34644;-85
2024/01/31 10:10:39;;;;;;;1999.90;999.90;;;;;;;3.82;100.00;68929.41;5358697;33;35538;-86
2024/01/31 10:13:43;;;;;;;1999.90;988.80;;;;;;;4.14;100.00;68967.88;5361623;33;33647;-85
2024/01/31 10:16:50;;;;;;;1999.90;999.90;;;;;;;4.47;100.00;69003.38;5352396;33;148458;-86
2024/01/31 10:19:52;;;;;;;1999.90;999.90;;;;;;;4.53;100.00;69012.38;5362851;33;34362;-85
2024/01/31 10:23:00;;;;;;;1999.90;976.47;;;;;;;4.75;100.00;69035.19;5362114;33;34279;-86
2024/01/31 10:26:03;;;;;;;1999.90;878.10;;;;;;;4.94;100.00;69056.59;5360876;33;34892;-85
2024/01/31 10:29:09;;;;;;;1999.90;945.12;;;;;;;5.00;100.00;69068.81;5361645;33;32384;-86
2024/01/31 10:32:15;;;;;;;1999.90;997.92;;;;;;;5.20;100.00;69144.31;5347909;33;34280;-90
2024/01/31 10:35:21;;;;;;;1999.90;864.55;;;;;;;5.34;100.00;69106.97;5361804;33;34771;-90
2024/01/31 10:38:45;;;;;;;1999.90;866.22;;;;;;;5.26;100.00;69100.38;5361025;33;33637;-86
2024/01/31 10:41:49;;;;;;;1999.90;941.60;;;;;;;5.48;100.00;69116.72;5367750;33;34233;-86
2024/01/31 10:44:53;;;;;;;1999.90;944.03;;;;;;;5.42;100.00;69113.00;5361586;33;34096;-85
2024/01/31 10:47:57;;;;;;;1999.90;805.22;;;;;;;5.51;97.70;69123.44;5348876;33;34667;-86
2024/01/31 10:51:02;;;;;;;1999.90;794.13;;;;;;;5.75;97.86;69150.63;5348653;33;34824;-86
2024/01/31 10:54:08;;;;;;;1999.90;997.55;;;;;;;5.93;92.18;69170.91;5348960;33;34832;-86
2024/01/31 10:57:12;;;;;;;1999.90;894.55;;;;;;;5.93;88.52;69170.91;5361775;33;35141;-86
2024/01/31 11:00:33;;;;;;;1999.90;712.15;;;;;;;6.38;89.45;69221.84;5361791;33;34792;-85
2024/01/31 11:03:36;;;;;;;1999.90;850.60;;;;;;;6.52;87.38;69237.47;5348880;33;35209;-85
2024/01/31 11:06:40;;;;;;;1999.90;875.17;;;;;;;6.31;90.03;69270.03;5347924;33;35036;-86
2024/01/31 11:09:43;;;;;;;1999.90;818.20;;;;;;;6.46;87.91;69231.09;5360898;33;34082;-86
2024/01/31 11:13:06;;;;;;;1999.90;810.13;;;;;;;6.42;82.81;69281.63;5361306;33;34021;-85
2024/01/31 11:16:09;;;;;;;1999.90;885.65;;;;;;;6.42;82.94;69226.47;5361419;33;34099;-86
2024/01/31 11:19:19;;;;;;;1999.90;855.80;;;;;;;6.42;83.03;69226.47;5360680;33;34708;-86
2024/01/31 11:22:22;;;;;;;1999.90;865.87;;;;;;;6.21;85.56;69202.16;5352606;33;34801;-86
2024/01/31 11:25:35;;;;;;;1999.90;804.92;;;;;;;6.25;85.07;69206.78;5351542;33;33764;-86
2024/01/31 11:28:42;;;;;;;1999.90;584.80;;;;;;;6.23;84.76;69201.81;5353373;33;34281;-86
2024/01/31 11:31:45;;;;;;;1999.90;999.90;;;;;;;6.26;87.23;69210.59;5358156;33;33653;-86
2024/01/31 11:35:05;;;;;;;1999.90;589.53;;;;;;;6.31;85.42;69213.75;5349219;33;34201;-86
2024/01/31 11:38:08;;;;;;;1999.90;724.10;;;;;;;6.57;82.29;69246.50;5352909;33;35626;-89
2024/01/31 11:41:11;;;;;;;1999.90;721.92;;;;;;;6.52;81.61;69238.06;5348290;33;34418;-86
2024/01/31 11:44:17;;;;;;;1999.90;763.25;;;;;;;6.61;81.58;69245.28;5347754;33;33013;-87
2024/01/31 11:47:21;;;;;;;1976.75;549.80;;;;;;;6.99;78.71;69349.19;5349397;33;33672;-86
2024/01/31 11:50:26;;;;;;;1999.90;695.58;;;;;;;7.33;77.39;69332.25;5365454;33;34151;-86
2024/01/31 11:53:29;;;;;;;1999.90;594.50;;;;;;;7.72;74.16;69373.66;5360041;33;34015;-86
2024/01/31 11:56:32;;;;;;;1999.90;976.42;;;;;;;7.53;72.64;69348.97;5332943;33;34569;-86
2024/01/31 11:59:35;;;;;;;1999.90;645.30;;;;;;;7.59;72.29;69359.16;5344946;33;34308;-86
2024/01/31 12:02:40;;;;;;;1999.90;591.83;;;;;;;7.41;71.36;69340.97;5333724;33;34506;-86
2024/01/31 12:05:43;;;;;;;1999.90;687.67;;;;;;;7.72;67.50;69371.59;5345286;33;33592;-86
2024/01/31 12:08:48;;;;;;;1999.90;593.97;;;;;;;7.48;68.27;69349.06;5360869;33;33623;-86
2024/01/31 12:11:51;;;;;;;1995.53;519.90;;;;;;;7.50;68.80;69351.38;5359473;33;34124;-86
2024/01/31 12:14:53;;;;;;;1999.90;676.72;;;;;;;8.36;65.65;69446.13;5334295;33;33608;-86
2024/01/31 12:17:57;;;;;;;1938.07;512.25;;;;;;;8.56;63.17;69469.38;5347024;33;34640;-86
2024/01/31 12:21:01;;;;;;;1999.90;524.30;;;;;;;8.55;63.89;69465.53;5346806;33;34327;-86
2024/01/31 12:24:05;;;;;;;1897.38;509.25;;;;;;;8.28;63.79;69439.53;5357748;33;33918;-86
2024/01/31 12:27:12;;;;;;;1999.90;527.15;;;;;;;8.31;65.42;69443.59;5359355;33;33700;-86
2024/01/31 12:30:16;;;;;;;1635.28;510.75;;;;;;;8.80;62.45;69494.00;5344872;33;33991;-86
2024/01/31 12:33:19;;;;;;;1464.03;401.17;;;;;;;9.76;59.28;69607.88;5345185;33;34085;-86
2024/01/31 12:36:23;;;;;;;1035.93;324.95;;;;;;;10.27;55.33;69662.75;5357007;33;32930;-86
2024/01/31 12:39:26;;;;;;;1118.75;392.77;;;;;;;10.52;54.46;69691.22;5351452;33;35379;-86
2024/01/31 12:42:29;;;;;;;996.42;378.62;;;;;;;10.34;53.55;69673.53;5336137;33;34182;-86
2024/01/31 13:10:19;;;;;;;1999.90;669.15;;;;;;;7.83;64.33;69389.06;5606333;31;128117;-85
2024/01/31 13:13:23;;;;;;;1999.90;559.90;;;;;;;8.10;63.52;69475.69;5580108;31;33546;-86
2024/01/31 13:16:26;;;;;;;1897.35;541.42;;;;;;;7.54;66.06;69358.69;5580279;31;34023;-86
2024/01/31 13:19:30;;;;;;;1960.22;516.45;;;;;;;7.31;64.92;69324.03;5591879;31;33526;-85
2024/01/31 13:22:33;;;;;;;1886.00;585.22;;;;;;;7.02;67.44;69300.16;5581229;31;33780;-85
2024/01/31 13:25:36;;;;;;;1999.90;648.37;;;;;;;6.74;68.08;69259.75;5570741;31;33918;-88
2024/01/31 13:28:39;;;;;;;1999.90;801.33;;;;;;;6.48;69.48;69233.44;5591007;31;33581;-89
2024/01/31 13:48:37;;;;;;;1999.90;999.90;;;;;;;5.75;76.92;69144.75;5656909;31;167356;-85
2024/01/31 13:51:42;;;;;;;1999.90;999.90;;;;;;;5.75;76.92;69144.75;5615696;31;33431;-85
2024/01/31 13:54:45;;;;;;;1999.90;999.90;;;;;;;5.45;78.30;69116.50;5640392;31;33753;-85
2024/01/31 13:57:48;;;;;;;1999.90;999.90;;;;;;;5.36;78.01;69108.72;5622538;31;33729;-85
2024/01/31 14:00:51;;;;;;;1999.90;999.90;;;;;;;5.34;78.98;69103.75;5622490;31;33743;-86
2024/01/31 14:03:54;;;;;;;1999.90;999.90;;;;;;;5.30;79.65;69154.75;5595013;31;34518;-85
2024/01/31 14:06:57;;;;;;;1999.90;999.90;;;;;;;5.17;80.42;69085.22;5627245;31;35056;-85
2024/01/31 14:10:00;;;;;;;1999.90;999.90;;;;;;;5.22;80.53;69091.03;5623934;31;34333;-86
2024/01/31 14:13:03;;;;;;;1999.90;980.53;;;;;;;5.25;81.52;69090.69;5617888;31;33743;-86
2024/01/31 14:16:11;;;;;;;1999.90;999.90;;;;;;;5.20;83.46;69088.72;5623401;31;34609;-85
2024/01/31 14:19:14;;;;;;;1999.90;998.55;;;;;;;5.25;82.04;69152.19;5608515;31;34572;-85
2024/01/31 14:22:17;;;;;;;1999.90;999.90;;;;;;;5.33;81.12;69102.59;5608741;31;35415;-86
2024/01/31 14:25:31;;;;;;;1999.90;941.92;;;;;;;5.22;81.30;69095.75;5608193;31;34759;-90
2024/01/31 14:28:41;;;;;;;1999.90;944.08;;;;;;;5.07;81.89;69076.31;5607992;31;34017;-86
2024/01/31 14:31:45;;;;;;;1999.90;999.90;;;;;;;5.05;83.25;69068.13;5594787;31;33551;-86
2024/01/31 14:34:48;;;;;;;1999.90;960.50;;;;;;;4.94;84.36;69058.63;5621795;31;34337;-85
2024/01/31 14:37:51;;;;;;;1999.90;996.40;;;;;;;4.84;86.00;69049.72;5611047;31;33896;-86
2024/01/31 14:40:54;;;;;;;1999.90;999.90;;;;;;;4.91;86.96;69110.75;5616003;31;34100;-85
2024/01/31 14:43:57;;;;;;;1999.90;999.90;;;;;;;5.00;85.89;69065.56;5607272;31;33940;-86
2024/01/31 14:47:00;;;;;;;1999.90;950.13;;;;;;;4.89;83.89;69050.78;5607247;31;33513;-86
2024/01/31 14:50:04;;;;;;;1999.90;999.90;;;;;;;4.81;83.95;69044.19;5621945;31;33771;-86
2024/01/31 14:53:08;;;;;;;1999.90;999.90;;;;;;;4.67;86.53;69025.91;5621653;31;33929;-86
2024/01/31 14:56:11;;;;;;;1999.90;983.83;;;;;;;4.77;87.47;69039.56;5607265;31;34668;-86
2024/01/31 14:59:15;;;;;;;1999.90;999.90;;;;;;;4.77;86.50;69036.91;5611079;31;33904;-86
2024/01/31 15:02:18;;;;;;;1999.90;999.90;;;;;;;4.62;87.50;69022.81;5593621;31;34390;-86
2024/01/31 15:05:21;;;;;;;1999.90;985.88;;;;;;;4.44;89.04;69057.50;5595354;31;34633;-86
2024/01/31 15:08:24;;;;;;;1999.90;999.90;;;;;;;4.36;88.49;68995.97;5564940;31;33880;-85
2024/01/31 15:11:27;;;;;;;1999.90;999.90;;;;;;;4.22;89.21;68974.47;5575601;31;33907;-86
2024/01/31 15:14:30;;;;;;;1999.90;999.90;;;;;;;4.10;88.92;68963.84;5609256;31;33632;-85
2024/01/31 15:17:34;;;;;;;1999.90;999.90;;;;;;;4.06;91.19;68956.56;5580961;31;33966;-85
2024/01/31 15:20:36;;;;;;;1999.90;999.90;;;;;;;3.95;91.95;68944.44;5571687;31;33819;-85
2024/01/31 15:23:40;;;;;;;1999.90;999.90;;;;;;;3.82;90.47;68929.97;5563044;31;33780;-85
2024/01/31 15:26:43;;;;;;;1999.90;999.90;;;;;;;3.86;89.40;68937.25;5581657;31;33989;-84
2024/01/31 15:29:46;;;;;;;1999.90;999.90;;;;;;;3.78;90.59;68924.78;5611015;31;35357;-86
2024/01/31 15:32:49;;;;;;;1999.90;999.90;;;;;;;3.70;93.00;68916.13;5581256;31;35299;-86
2024/01/31 15:35:52;;;;;;;1999.90;999.90;;;;;;;3.61;94.07;68905.72;5579938;31;33655;-86
2024/01/31 15:38:58;;;;;;;1999.90;999.90;;;;;;;3.59;95.59;68908.69;5600660;31;34384;-86
2024/01/31 15:42:01;;;;;;;1999.90;999.90;;;;;;;3.65;95.15;68912.97;5580064;31;33527;-85
2024/01/31 15:45:08;;;;;;;1999.90;999.90;;;;;;;3.68;95.33;68919.09;5589796;31;33840;-85
2024/01/31 15:48:11;;;;;;;1999.90;999.90;;;;;;;3.67;96.32;68970.78;5590048;31;34517;-85
2024/01/31 15:51:14;;;;;;;1999.90;999.90;;;;;;;3.81;96.04;68928.25;5581197;31;34260;-84
2024/01/31 15:54:18;;;;;;;1999.90;999.90;;;;;;;3.86;94.40;68937.25;5578099;31;33432;-85
2024/01/31 15:57:21;;;;;;;1999.90;999.90;;;;;;;3.86;94.61;68937.25;5607063;31;33778;-85
2024/01/31 16:00:25;;;;;;;1999.90;999.90;;;;;;;3.87;93.80;68938.41;5593212;31;33887;-85
2024/01/31 16:03:28;;;;;;;1999.90;999.90;;;;;;;3.89;92.82;68995.66;5607879;31;34282;-85
2024/01/31 16:06:31;;;;;;;1999.90;999.90;;;;;;;3.94;92.74;68943.28;5594042;31;34797;-85
2024/01/31 16:09:35;;;;;;;1999.90;999.90;;;;;;;3.89;92.20;68939.56;5593038;31;33815;-84
2024/01/31 16:12:37;;;;;;;1999.90;999.90;;;;;;;3.79;95.99;68929.16;5594490;31;34698;-85
2024/01/31 16:15:40;;;;;;;1999.90;999.90;;;;;;;3.75;98.18;68979.44;5608535;31;34099;-84
2024/01/31 16:18:47;;;;;;;1999.90;999.90;;;;;;;3.77;96.29;68923.63;5586253;31;33694;-84
2024/01/31 16:21:51;;;;;;;1999.90;999.90;;;;;;;3.78;96.48;68928.00;5599837;31;33802;-85
2024/01/31 16:24:54;;;;;;;1999.90;999.90;;;;;;;3.66;98.20;68910.91;5585371;31;33601;-86
2024/01/31 16:27:57;;;;;;;1999.90;999.90;;;;;;;3.66;98.93;68911.50;5598167;31;33926;-90
2024/01/31 16:31:02;;;;;;;1999.90;999.90;;;;;;;3.70;99.42;68918.75;5572063;31;34279;-89
2024/01/31 16:34:08;;;;;;;1999.90;999.90;;;;;;;3.70;98.09;68918.75;5598993;31;34345;-86
2024/01/31 16:37:11;;;;;;;1999.90;999.90;;;;;;;3.68;97.83;68916.44;5594750;31;34355;-88
2024/01/31 16:40:14;;;;;;;1999.90;999.90;;;;;;;3.65;97.68;68912.97;5615770;31;33991;-85
2024/01/31 16:43:17;;;;;;;1999.90;999.90;;;;;;;3.53;98.62;68897.06;5597884;31;33627;-84
2024/01/31 16:46:20;;;;;;;1999.90;999.90;;;;;;;3.53;98.06;68899.13;5585831;31;33199;-85
2024/01/31 16:49:23;;;;;;;1999.90;999.90;;;;;;;3.33;100.00;68935.25;5611648;31;33501;-85
2024/01/31 16:52:27;;;;;;;1999.90;999.90;;;;;;;3.34;100.00;68875.69;5584069;31;33041;-85
2024/01/31 16:55:30;;;;;;;1999.90;999.90;;;;;;;3.16;100.00;68858.13;5612093;31;34614;-85
